sensor_id;sensor_type;location;lat;lon;timestamp;temperature;humidity
26186;DHT22;20067;48.764;9.176;2023-05-10T00:00:26;15.70;91.30
26186;DHT22;20067;48.764;9.176;2023-05-10T00:02:52;15.60;91.30
26186;DHT22;20067;48.764;9.176;2023-05-10T00:05:18;15.60;91.30
26186;DHT22;20067;48.764;9.176;2023-05-10T00:07:44;15.40;91.30
26186;DHT22;20067;48.764;9.176;2023-05-10T00:10:12;15.40;91.30
26186;DHT22;20067;48.764;9.176;2023-05-10T00:12:38;15.30;91.30
26186;DHT22;20067;48.764;9.176;2023-05-10T00:15:04;15.50;91.30
26186;DHT22;20067;48.764;9.176;2023-05-10T00:17:30;15.60;91.30
26186;DHT22;20067;48.764;9.176;2023-05-10T00:19:57;15.60;91.30
26186;DHT22;20067;48.764;9.176;2023-05-10T00:22:23;15.70;91.30
26186;DHT22;20067;48.764;9.176;2023-05-10T00:24:48;15.50;91.30
26186;DHT22;20067;48.764;9.176;2023-05-10T00:27:14;15.40;91.30
26186;DHT22;20067;48.764;9.176;2023-05-10T00:29:39;15.60;91.30
26186;DHT22;20067;48.764;9.176;2023-05-10T00:32:05;15.90;91.30
26186;DHT22;20067;48.764;9.176;2023-05-10T00:34:31;15.80;91.30
26186;DHT22;20067;48.764;9.176;2023-05-10T00:36:56;15.80;91.30
26186;DHT22;20067;48.764;9.176;2023-05-10T00:39:22;15.70;91.30
26186;DHT22;20067;48.764;9.176;2023-05-10T00:41:48;15.70;91.30
26186;DHT22;20067;48.764;9.176;2023-05-10T00:44:13;15.60;91.30
26186;DHT22;20067;48.764;9.176;2023-05-10T00:46:39;15.60;91.30
26186;DHT22;20067;48.764;9.176;2023-05-10T00:49:05;15.70;91.30
26186;DHT22;20067;48.764;9.176;2023-05-10T00:51:31;15.70;91.30
26186;DHT22;20067;48.764;9.176;2023-05-10T00:53:57;15.60;91.30
26186;DHT22;20067;48.764;9.176;2023-05-10T00:56:23;15.50;91.30
26186;DHT22;20067;48.764;9.176;2023-05-10T00:58:50;15.50;91.30
26186;DHT22;20067;48.764;9.176;2023-05-10T01:01:15;15.30;91.30
26186;DHT22;20067;48.764;9.176;2023-05-10T01:03:41;15.50;91.30
26186;DHT22;20067;48.764;9.176;2023-05-10T01:06:07;15.40;91.30
26186;DHT22;20067;48.764;9.176;2023-05-10T01:15:17;15.30;91.30
26186;DHT22;20067;48.764;9.176;2023-05-10T01:17:44;15.50;91.30
26186;DHT22;20067;48.764;9.176;2023-05-10T01:20:12;15.60;91.30
26186;DHT22;20067;48.764;9.176;2023-05-10T01:34:22;15.00;91.30
26186;DHT22;20067;48.764;9.176;2023-05-10T01:36:56;15.20;91.30
26186;DHT22;20067;48.764;9.176;2023-05-10T01:39:24;15.30;91.30
26186;DHT22;20067;48.764;9.176;2023-05-10T01:41:55;15.30;91.30
26186;DHT22;20067;48.764;9.176;2023-05-10T01:44:46;15.40;91.30
26186;DHT22;20067;48.764;9.176;2023-05-10T01:47:28;15.40;91.30
26186;DHT22;20067;48.764;9.176;2023-05-10T01:49:56;15.60;91.30
26186;DHT22;20067;48.764;9.176;2023-05-10T01:52:32;15.30;91.30
26186;DHT22;20067;48.764;9.176;2023-05-10T01:55:17;15.20;91.30
26186;DHT22;20067;48.764;9.176;2023-05-10T01:57:44;15.30;91.30
26186;DHT22;20067;48.764;9.176;2023-05-10T02:00:12;15.20;91.30
26186;DHT22;20067;48.764;9.176;2023-05-10T02:02:45;15.00;91.30
26186;DHT22;20067;48.764;9.176;2023-05-10T02:05:12;14.70;91.30
26186;DHT22;20067;48.764;9.176;2023-05-10T02:07:39;14.60;91.30
26186;DHT22;20067;48.764;9.176;2023-05-10T02:10:06;14.40;91.30
26186;DHT22;20067;48.764;9.176;2023-05-10T02:12:36;14.40;91.30
26186;DHT22;20067;48.764;9.176;2023-05-10T02:15:05;14.40;91.30
26186;DHT22;20067;48.764;9.176;2023-05-10T02:17:32;14.30;91.30
26186;DHT22;20067;48.764;9.176;2023-05-10T02:19:59;14.30;91.30
26186;DHT22;20067;48.764;9.176;2023-05-10T02:22:27;14.40;91.30
26186;DHT22;20067;48.764;9.176;2023-05-10T02:24:55;14.50;91.30
26186;DHT22;20067;48.764;9.176;2023-05-10T02:27:24;14.50;91.30
26186;DHT22;20067;48.764;9.176;2023-05-10T02:29:51;14.50;91.30
26186;DHT22;20067;48.764;9.176;2023-05-10T02:32:17;14.70;91.30
26186;DHT22;20067;48.764;9.176;2023-05-10T02:34:45;14.70;91.30
26186;DHT22;20067;48.764;9.176;2023-05-10T02:37:14;14.80;91.30
26186;DHT22;20067;48.764;9.176;2023-05-10T02:39:41;14.70;91.30
26186;DHT22;20067;48.764;9.176;2023-05-10T02:42:15;14.60;91.30
26186;DHT22;20067;48.764;9.176;2023-05-10T02:44:43;14.60;91.30
26186;DHT22;20067;48.764;9.176;2023-05-10T02:47:10;14.80;91.30
26186;DHT22;20067;48.764;9.176;2023-05-10T02:49:36;14.80;91.30
26186;DHT22;20067;48.764;9.176;2023-05-10T02:52:05;14.80;91.30
26186;DHT22;20067;48.764;9.176;2023-05-10T02:54:39;14.80;91.30
26186;DHT22;20067;48.764;9.176;2023-05-10T02:57:07;14.60;91.30
26186;DHT22;20067;48.764;9.176;2023-05-10T02:59:34;14.60;91.30
26186;DHT22;20067;48.764;9.176;2023-05-10T03:02:00;14.70;91.30
26186;DHT22;20067;48.764;9.176;2023-05-10T03:04:27;14.70;91.30
26186;DHT22;20067;48.764;9.176;2023-05-10T03:06:53;14.70;91.30
26186;DHT22;20067;48.764;9.176;2023-05-10T03:09:19;14.70;91.30
26186;DHT22;20067;48.764;9.176;2023-05-10T03:14:31;14.50;91.30
26186;DHT22;20067;48.764;9.176;2023-05-10T03:19:47;14.90;91.30
26186;DHT22;20067;48.764;9.176;2023-05-10T03:22:44;15.00;91.30
26186;DHT22;20067;48.764;9.176;2023-05-10T03:25:08;15.10;91.30
26186;DHT22;20067;48.764;9.176;2023-05-10T03:27:36;15.10;91.30
26186;DHT22;20067;48.764;9.176;2023-05-10T03:30:05;15.00;91.30
26186;DHT22;20067;48.764;9.176;2023-05-10T03:32:31;15.10;91.30
26186;DHT22;20067;48.764;9.176;2023-05-10T03:34:59;15.40;91.30
26186;DHT22;20067;48.764;9.176;2023-05-10T03:37:25;15.30;91.30
26186;DHT22;20067;48.764;9.176;2023-05-10T03:39:50;15.30;91.30
26186;DHT22;20067;48.764;9.176;2023-05-10T03:42:16;15.30;91.30
26186;DHT22;20067;48.764;9.176;2023-05-10T03:44:43;15.10;91.30
26186;DHT22;20067;48.764;9.176;2023-05-10T03:47:08;15.10;91.30
26186;DHT22;20067;48.764;9.176;2023-05-10T03:49:34;14.90;91.30
26186;DHT22;20067;48.764;9.176;2023-05-10T03:51:59;14.90;91.30
26186;DHT22;20067;48.764;9.176;2023-05-10T03:54:25;14.90;91.30
26186;DHT22;20067;48.764;9.176;2023-05-10T03:56:51;15.00;91.30
26186;DHT22;20067;48.764;9.176;2023-05-10T03:59:17;15.10;91.30
26186;DHT22;20067;48.764;9.176;2023-05-10T04:01:42;15.00;91.30
26186;DHT22;20067;48.764;9.176;2023-05-10T04:04:08;14.70;91.30
26186;DHT22;20067;48.764;9.176;2023-05-10T04:06:33;14.40;91.30
26186;DHT22;20067;48.764;9.176;2023-05-10T04:08:59;14.30;91.30
26186;DHT22;20067;48.764;9.176;2023-05-10T04:11:26;14.30;91.30
26186;DHT22;20067;48.764;9.176;2023-05-10T04:13:53;14.40;91.30
26186;DHT22;20067;48.764;9.176;2023-05-10T04:16:18;14.30;91.30
26186;DHT22;20067;48.764;9.176;2023-05-10T04:18:44;14.40;91.30
26186;DHT22;20067;48.764;9.176;2023-05-10T04:21:13;14.50;91.30
26186;DHT22;20067;48.764;9.176;2023-05-10T04:23:38;14.60;91.30
26186;DHT22;20067;48.764;9.176;2023-05-10T04:26:04;14.70;91.30
26186;DHT22;20067;48.764;9.176;2023-05-10T04:28:30;14.60;91.30
26186;DHT22;20067;48.764;9.176;2023-05-10T04:31:09;14.40;91.30
26186;DHT22;20067;48.764;9.176;2023-05-10T04:33:35;14.40;91.30
26186;DHT22;20067;48.764;9.176;2023-05-10T04:36:02;14.30;91.30
26186;DHT22;20067;48.764;9.176;2023-05-10T04:38:28;14.10;91.30
26186;DHT22;20067;48.764;9.176;2023-05-10T04:40:53;14.10;91.30
26186;DHT22;20067;48.764;9.176;2023-05-10T04:43:19;14.10;91.30
26186;DHT22;20067;48.764;9.176;2023-05-10T04:45:45;14.30;91.30
26186;DHT22;20067;48.764;9.176;2023-05-10T04:48:11;14.40;91.30
26186;DHT22;20067;48.764;9.176;2023-05-10T04:50:36;14.40;91.30
26186;DHT22;20067;48.764;9.176;2023-05-10T04:53:02;14.60;91.30
26186;DHT22;20067;48.764;9.176;2023-05-10T04:55:27;14.60;91.30
26186;DHT22;20067;48.764;9.176;2023-05-10T04:57:53;14.60;91.30
26186;DHT22;20067;48.764;9.176;2023-05-10T05:00:22;14.60;91.30
26186;DHT22;20067;48.764;9.176;2023-05-10T05:02:47;14.60;91.30
26186;DHT22;20067;48.764;9.176;2023-05-10T05:05:13;14.40;91.30
26186;DHT22;20067;48.764;9.176;2023-05-10T05:07:39;14.40;91.30
26186;DHT22;20067;48.764;9.176;2023-05-10T05:10:06;14.50;91.30
26186;DHT22;20067;48.764;9.176;2023-05-10T05:12:32;14.60;91.30
26186;DHT22;20067;48.764;9.176;2023-05-10T05:14:58;14.80;91.30
26186;DHT22;20067;48.764;9.176;2023-05-10T05:17:24;14.80;91.30
26186;DHT22;20067;48.764;9.176;2023-05-10T05:19:50;14.90;91.30
26186;DHT22;20067;48.764;9.176;2023-05-10T05:22:16;14.80;91.30
26186;DHT22;20067;48.764;9.176;2023-05-10T05:24:42;14.80;91.30
26186;DHT22;20067;48.764;9.176;2023-05-10T05:27:07;14.80;91.30
26186;DHT22;20067;48.764;9.176;2023-05-10T05:29:33;14.80;91.30
26186;DHT22;20067;48.764;9.176;2023-05-10T05:31:59;14.80;91.30
26186;DHT22;20067;48.764;9.176;2023-05-10T05:34:25;14.90;91.30
26186;DHT22;20067;48.764;9.176;2023-05-10T05:36:51;15.10;91.30
26186;DHT22;20067;48.764;9.176;2023-05-10T05:39:17;15.30;91.30
26186;DHT22;20067;48.764;9.176;2023-05-10T05:41:42;15.30;91.30
26186;DHT22;20067;48.764;9.176;2023-05-10T05:44:08;15.30;91.30
26186;DHT22;20067;48.764;9.176;2023-05-10T05:46:34;15.50;91.30
26186;DHT22;20067;48.764;9.176;2023-05-10T05:49:00;15.60;91.30
26186;DHT22;20067;48.764;9.176;2023-05-10T05:51:26;15.70;91.30
26186;DHT22;20067;48.764;9.176;2023-05-10T05:53:52;15.60;91.30
26186;DHT22;20067;48.764;9.176;2023-05-10T05:56:18;15.70;91.30
26186;DHT22;20067;48.764;9.176;2023-05-10T05:58:50;15.70;91.30
26186;DHT22;20067;48.764;9.176;2023-05-10T06:01:15;15.80;91.30
26186;DHT22;20067;48.764;9.176;2023-05-10T06:03:41;15.70;91.30
26186;DHT22;20067;48.764;9.176;2023-05-10T06:06:07;15.70;91.30
26186;DHT22;20067;48.764;9.176;2023-05-10T06:08:33;15.60;91.30
26186;DHT22;20067;48.764;9.176;2023-05-10T06:10:59;15.70;91.30
26186;DHT22;20067;48.764;9.176;2023-05-10T06:13:25;15.70;91.30
26186;DHT22;20067;48.764;9.176;2023-05-10T06:15:57;15.70;91.30
26186;DHT22;20067;48.764;9.176;2023-05-10T06:18:23;15.80;91.30
26186;DHT22;20067;48.764;9.176;2023-05-10T06:20:49;15.70;91.30
26186;DHT22;20067;48.764;9.176;2023-05-10T06:23:15;15.60;91.30
26186;DHT22;20067;48.764;9.176;2023-05-10T06:25:41;15.50;91.30
26186;DHT22;20067;48.764;9.176;2023-05-10T06:28:06;15.40;91.30
26186;DHT22;20067;48.764;9.176;2023-05-10T06:30:32;15.40;91.30
26186;DHT22;20067;48.764;9.176;2023-05-10T06:32:57;15.60;91.30
26186;DHT22;20067;48.764;9.176;2023-05-10T06:35:23;15.70;91.30
26186;DHT22;20067;48.764;9.176;2023-05-10T06:37:49;15.90;91.30
26186;DHT22;20067;48.764;9.176;2023-05-10T06:40:15;15.90;91.30
26186;DHT22;20067;48.764;9.176;2023-05-10T06:42:41;15.60;91.30
26186;DHT22;20067;48.764;9.176;2023-05-10T06:45:07;15.50;91.30
26186;DHT22;20067;48.764;9.176;2023-05-10T06:47:33;15.30;91.30
26186;DHT22;20067;48.764;9.176;2023-05-10T06:49:59;15.30;91.30
26186;DHT22;20067;48.764;9.176;2023-05-10T06:52:25;15.20;91.30
26186;DHT22;20067;48.764;9.176;2023-05-10T06:54:50;15.10;91.30
26186;DHT22;20067;48.764;9.176;2023-05-10T06:57:16;15.20;91.30
26186;DHT22;20067;48.764;9.176;2023-05-10T06:59:43;15.10;91.30
26186;DHT22;20067;48.764;9.176;2023-05-10T07:02:08;15.20;91.30
26186;DHT22;20067;48.764;9.176;2023-05-10T07:04:34;15.40;91.30
26186;DHT22;20067;48.764;9.176;2023-05-10T07:07:00;15.40;91.30
26186;DHT22;20067;48.764;9.176;2023-05-10T07:09:25;15.60;91.30
26186;DHT22;20067;48.764;9.176;2023-05-10T07:11:51;15.70;91.30
26186;DHT22;20067;48.764;9.176;2023-05-10T07:14:16;15.90;91.30
26186;DHT22;20067;48.764;9.176;2023-05-10T07:16:42;15.90;91.30
26186;DHT22;20067;48.764;9.176;2023-05-10T07:19:07;16.10;91.30
26186;DHT22;20067;48.764;9.176;2023-05-10T07:21:34;16.20;91.30
26186;DHT22;20067;48.764;9.176;2023-05-10T07:24:00;16.50;91.30
26186;DHT22;20067;48.764;9.176;2023-05-10T07:26:26;16.90;91.30
26186;DHT22;20067;48.764;9.176;2023-05-10T07:28:51;17.00;91.30
26186;DHT22;20067;48.764;9.176;2023-05-10T07:31:17;16.50;91.30
26186;DHT22;20067;48.764;9.176;2023-05-10T07:33:43;16.50;91.30
26186;DHT22;20067;48.764;9.176;2023-05-10T07:36:08;16.30;91.30
26186;DHT22;20067;48.764;9.176;2023-05-10T07:38:34;16.40;91.30
26186;DHT22;20067;48.764;9.176;2023-05-10T07:40:59;16.40;91.30
26186;DHT22;20067;48.764;9.176;2023-05-10T07:43:25;16.70;91.30
26186;DHT22;20067;48.764;9.176;2023-05-10T07:45:51;17.00;91.30
26186;DHT22;20067;48.764;9.176;2023-05-10T07:48:16;17.00;91.30
26186;DHT22;20067;48.764;9.176;2023-05-10T07:50:42;17.00;91.30
26186;DHT22;20067;48.764;9.176;2023-05-10T07:53:08;17.00;91.30
26186;DHT22;20067;48.764;9.176;2023-05-10T07:55:33;17.10;91.30
26186;DHT22;20067;48.764;9.176;2023-05-10T07:57:59;17.10;91.30
26186;DHT22;20067;48.764;9.176;2023-05-10T08:00:26;17.20;90.90
26186;DHT22;20067;48.764;9.176;2023-05-10T08:02:52;17.40;90.80
26186;DHT22;20067;48.764;9.176;2023-05-10T08:05:18;17.30;89.00
26186;DHT22;20067;48.764;9.176;2023-05-10T08:07:43;17.20;90.00
26186;DHT22;20067;48.764;9.176;2023-05-10T08:10:09;17.20;90.30
26186;DHT22;20067;48.764;9.176;2023-05-10T08:12:36;17.10;90.60
26186;DHT22;20067;48.764;9.176;2023-05-10T08:15:02;17.10;88.60
26186;DHT22;20067;48.764;9.176;2023-05-10T08:17:28;17.00;90.00
26186;DHT22;20067;48.764;9.176;2023-05-10T08:19:54;17.00;88.50
26186;DHT22;20067;48.764;9.176;2023-05-10T08:22:19;16.70;89.00
26186;DHT22;20067;48.764;9.176;2023-05-10T08:24:45;16.40;90.50
26186;DHT22;20067;48.764;9.176;2023-05-10T08:27:10;16.40;90.90
26186;DHT22;20067;48.764;9.176;2023-05-10T08:29:37;16.60;89.90
26186;DHT22;20067;48.764;9.176;2023-05-10T08:32:03;16.80;90.10
26186;DHT22;20067;48.764;9.176;2023-05-10T08:34:29;17.20;90.60
26186;DHT22;20067;48.764;9.176;2023-05-10T08:36:56;17.20;90.30
26186;DHT22;20067;48.764;9.176;2023-05-10T08:39:22;17.30;89.00
26186;DHT22;20067;48.764;9.176;2023-05-10T08:41:51;17.80;88.70
26186;DHT22;20067;48.764;9.176;2023-05-10T08:44:19;18.10;88.00
26186;DHT22;20067;48.764;9.176;2023-05-10T08:46:46;18.20;85.40
26186;DHT22;20067;48.764;9.176;2023-05-10T08:49:17;17.80;86.00
26186;DHT22;20067;48.764;9.176;2023-05-10T08:51:50;18.00;85.80
26186;DHT22;20067;48.764;9.176;2023-05-10T08:54:17;17.90;85.60
26186;DHT22;20067;48.764;9.176;2023-05-10T08:56:43;17.70;85.90
26186;DHT22;20067;48.764;9.176;2023-05-10T08:59:08;17.70;86.20
26186;DHT22;20067;48.764;9.176;2023-05-10T09:01:36;17.80;85.40
26186;DHT22;20067;48.764;9.176;2023-05-10T09:04:02;17.90;84.70
26186;DHT22;20067;48.764;9.176;2023-05-10T09:06:28;17.80;84.90
26186;DHT22;20067;48.764;9.176;2023-05-10T09:08:54;17.90;85.30
26186;DHT22;20067;48.764;9.176;2023-05-10T09:11:20;18.30;84.90
26186;DHT22;20067;48.764;9.176;2023-05-10T09:13:48;18.30;83.80
26186;DHT22;20067;48.764;9.176;2023-05-10T09:16:15;18.20;85.20
26186;DHT22;20067;48.764;9.176;2023-05-10T09:18:40;18.00;84.90
26186;DHT22;20067;48.764;9.176;2023-05-10T09:21:06;17.60;86.80
26186;DHT22;20067;48.764;9.176;2023-05-10T09:23:31;17.90;86.40
26186;DHT22;20067;48.764;9.176;2023-05-10T09:26:07;17.50;84.10
26186;DHT22;20067;48.764;9.176;2023-05-10T09:28:54;17.30;86.60
26186;DHT22;20067;48.764;9.176;2023-05-10T09:31:20;17.20;86.20
26186;DHT22;20067;48.764;9.176;2023-05-10T09:33:49;17.10;85.90
26186;DHT22;20067;48.764;9.176;2023-05-10T09:36:16;17.10;85.00
26186;DHT22;20067;48.764;9.176;2023-05-10T09:38:52;17.00;85.40
26186;DHT22;20067;48.764;9.176;2023-05-10T09:41:19;17.00;85.60
26186;DHT22;20067;48.764;9.176;2023-05-10T09:43:46;17.30;85.60
26186;DHT22;20067;48.764;9.176;2023-05-10T09:46:12;17.60;86.00
26186;DHT22;20067;48.764;9.176;2023-05-10T09:48:47;17.90;84.00
26186;DHT22;20067;48.764;9.176;2023-05-10T09:51:23;18.10;83.90
26186;DHT22;20067;48.764;9.176;2023-05-10T09:54:13;18.40;83.00
26186;DHT22;20067;48.764;9.176;2023-05-10T09:56:39;18.80;81.30
26186;DHT22;20067;48.764;9.176;2023-05-10T09:59:07;19.00;80.60
26186;DHT22;20067;48.764;9.176;2023-05-10T10:01:34;19.40;79.60
26186;DHT22;20067;48.764;9.176;2023-05-10T10:04:04;19.60;78.50
26186;DHT22;20067;48.764;9.176;2023-05-10T10:06:35;20.20;77.70
26186;DHT22;20067;48.764;9.176;2023-05-10T10:09:02;20.20;76.10
26186;DHT22;20067;48.764;9.176;2023-05-10T10:11:28;20.40;75.40
26186;DHT22;20067;48.764;9.176;2023-05-10T10:13:54;20.50;75.40
26186;DHT22;20067;48.764;9.176;2023-05-10T10:16:20;20.00;75.80
26186;DHT22;20067;48.764;9.176;2023-05-10T10:18:47;20.70;76.30
26186;DHT22;20067;48.764;9.176;2023-05-10T10:21:13;21.40;73.90
26186;DHT22;20067;48.764;9.176;2023-05-10T10:23:40;21.10;73.30
26186;DHT22;20067;48.764;9.176;2023-05-10T10:26:06;21.00;74.90
26186;DHT22;20067;48.764;9.176;2023-05-10T10:31:28;19.30;76.50
26186;DHT22;20067;48.764;9.176;2023-05-10T10:34:05;18.40;81.10
26186;DHT22;20067;48.764;9.176;2023-05-10T10:36:45;18.40;79.30
26186;DHT22;20067;48.764;9.176;2023-05-10T10:39:11;18.60;79.90
26186;DHT22;20067;48.764;9.176;2023-05-10T10:41:39;18.90;79.50
26186;DHT22;20067;48.764;9.176;2023-05-10T10:49:48;18.90;77.90
26186;DHT22;20067;48.764;9.176;2023-05-10T10:55:14;18.40;79.50
26186;DHT22;20067;48.764;9.176;2023-05-10T11:00:27;17.50;80.20
26186;DHT22;20067;48.764;9.176;2023-05-10T11:02:57;17.20;79.80
26186;DHT22;20067;48.764;9.176;2023-05-10T11:07:57;16.90;81.20
26186;DHT22;20067;48.764;9.176;2023-05-10T11:10:24;16.70;79.80
26186;DHT22;20067;48.764;9.176;2023-05-10T11:13:03;16.50;79.60
26186;DHT22;20067;48.764;9.176;2023-05-10T11:15:39;16.40;79.30
26186;DHT22;20067;48.764;9.176;2023-05-10T11:18:23;16.40;79.90
26186;DHT22;20067;48.764;9.176;2023-05-10T11:21:01;16.50;79.80
26186;DHT22;20067;48.764;9.176;2023-05-10T11:26:09;17.00;79.90
26186;DHT22;20067;48.764;9.176;2023-05-10T11:28:40;17.50;79.10
26186;DHT22;20067;48.764;9.176;2023-05-10T11:31:06;17.80;77.30
26186;DHT22;20067;48.764;9.176;2023-05-10T11:33:42;17.90;78.00
26186;DHT22;20067;48.764;9.176;2023-05-10T11:36:11;18.40;77.30
26186;DHT22;20067;48.764;9.176;2023-05-10T11:38:37;18.40;74.70
26186;DHT22;20067;48.764;9.176;2023-05-10T11:41:02;17.80;75.40
26186;DHT22;20067;48.764;9.176;2023-05-10T11:43:28;17.80;77.20
26186;DHT22;20067;48.764;9.176;2023-05-10T11:45:56;17.80;76.20
26186;DHT22;20067;48.764;9.176;2023-05-10T11:48:22;17.50;77.40
26186;DHT22;20067;48.764;9.176;2023-05-10T11:50:49;17.50;77.90
26186;DHT22;20067;48.764;9.176;2023-05-10T11:53:15;17.40;77.20
26186;DHT22;20067;48.764;9.176;2023-05-10T11:55:40;17.10;79.10
26186;DHT22;20067;48.764;9.176;2023-05-10T11:58:06;17.10;80.60
26186;DHT22;20067;48.764;9.176;2023-05-10T12:00:31;17.20;79.60
26186;DHT22;20067;48.764;9.176;2023-05-10T12:03:00;17.20;80.80
26186;DHT22;20067;48.764;9.176;2023-05-10T12:05:26;17.40;80.40
26186;DHT22;20067;48.764;9.176;2023-05-10T12:07:52;17.40;80.90
26186;DHT22;20067;48.764;9.176;2023-05-10T12:10:25;17.60;79.10
26186;DHT22;20067;48.764;9.176;2023-05-10T12:12:52;17.40;78.60
26186;DHT22;20067;48.764;9.176;2023-05-10T12:15:22;17.20;78.70
26186;DHT22;20067;48.764;9.176;2023-05-10T12:17:48;17.50;78.70
26186;DHT22;20067;48.764;9.176;2023-05-10T12:20:22;17.90;78.60
26186;DHT22;20067;48.764;9.176;2023-05-10T12:22:53;18.10;77.70
26186;DHT22;20067;48.764;9.176;2023-05-10T12:25:21;18.00;77.90
26186;DHT22;20067;48.764;9.176;2023-05-10T12:27:55;18.20;77.50
26186;DHT22;20067;48.764;9.176;2023-05-10T12:30:29;18.30;77.40
26186;DHT22;20067;48.764;9.176;2023-05-10T12:33:01;18.40;77.20
26186;DHT22;20067;48.764;9.176;2023-05-10T12:35:30;19.20;76.10
26186;DHT22;20067;48.764;9.176;2023-05-10T12:37:55;19.10;74.10
26186;DHT22;20067;48.764;9.176;2023-05-10T12:40:21;18.50;75.00
26186;DHT22;20067;48.764;9.176;2023-05-10T12:42:47;18.30;76.30
26186;DHT22;20067;48.764;9.176;2023-05-10T12:45:13;18.00;76.30
26186;DHT22;20067;48.764;9.176;2023-05-10T12:47:39;18.00;75.70
26186;DHT22;20067;48.764;9.176;2023-05-10T12:50:05;18.20;76.60
26186;DHT22;20067;48.764;9.176;2023-05-10T12:52:31;18.20;75.00
26186;DHT22;20067;48.764;9.176;2023-05-10T12:54:58;17.80;76.20
26186;DHT22;20067;48.764;9.176;2023-05-10T12:57:24;17.70;76.80
26186;DHT22;20067;48.764;9.176;2023-05-10T12:59:50;17.80;76.80
26186;DHT22;20067;48.764;9.176;2023-05-10T13:02:16;17.70;76.20
26186;DHT22;20067;48.764;9.176;2023-05-10T13:04:44;17.40;77.90
26186;DHT22;20067;48.764;9.176;2023-05-10T13:07:09;17.30;77.80
26186;DHT22;20067;48.764;9.176;2023-05-10T13:09:35;17.30;77.90
26186;DHT22;20067;48.764;9.176;2023-05-10T13:12:02;17.30;78.00
26186;DHT22;20067;48.764;9.176;2023-05-10T13:14:29;17.30;77.90
26186;DHT22;20067;48.764;9.176;2023-05-10T13:16:55;17.40;78.50
26186;DHT22;20067;48.764;9.176;2023-05-10T13:19:20;17.60;76.80
26186;DHT22;20067;48.764;9.176;2023-05-10T13:21:46;17.50;77.50
26186;DHT22;20067;48.764;9.176;2023-05-10T13:24:12;17.90;77.00
26186;DHT22;20067;48.764;9.176;2023-05-10T13:26:44;18.30;75.30
26186;DHT22;20067;48.764;9.176;2023-05-10T13:29:09;18.50;75.00
26186;DHT22;20067;48.764;9.176;2023-05-10T13:31:35;18.50;75.50
26186;DHT22;20067;48.764;9.176;2023-05-10T13:34:01;18.80;73.90
26186;DHT22;20067;48.764;9.176;2023-05-10T13:36:27;19.00;72.70
26186;DHT22;20067;48.764;9.176;2023-05-10T13:38:53;19.00;72.40
26186;DHT22;20067;48.764;9.176;2023-05-10T13:41:19;18.80;73.10
26186;DHT22;20067;48.764;9.176;2023-05-10T13:43:44;19.00;73.60
26186;DHT22;20067;48.764;9.176;2023-05-10T13:46:10;18.90;73.20
26186;DHT22;20067;48.764;9.176;2023-05-10T13:48:35;18.80;73.20
26186;DHT22;20067;48.764;9.176;2023-05-10T13:51:02;18.20;74.30
26186;DHT22;20067;48.764;9.176;2023-05-10T13:53:28;18.20;75.50
26186;DHT22;20067;48.764;9.176;2023-05-10T13:55:53;18.10;73.90
26186;DHT22;20067;48.764;9.176;2023-05-10T13:58:19;18.20;74.10
26186;DHT22;20067;48.764;9.176;2023-05-10T14:00:44;18.10;73.40
26186;DHT22;20067;48.764;9.176;2023-05-10T14:03:10;18.30;73.80
26186;DHT22;20067;48.764;9.176;2023-05-10T14:05:36;18.70;72.90
26186;DHT22;20067;48.764;9.176;2023-05-10T14:08:02;19.20;71.70
26186;DHT22;20067;48.764;9.176;2023-05-10T14:10:28;19.30;70.90
26186;DHT22;20067;48.764;9.176;2023-05-10T14:12:53;19.30;70.80
26186;DHT22;20067;48.764;9.176;2023-05-10T14:15:19;19.10;68.80
26186;DHT22;20067;48.764;9.176;2023-05-10T14:17:44;19.10;69.70
26186;DHT22;20067;48.764;9.176;2023-05-10T14:20:10;19.60;68.90
26186;DHT22;20067;48.764;9.176;2023-05-10T14:22:36;19.90;68.50
26186;DHT22;20067;48.764;9.176;2023-05-10T14:25:02;20.20;68.10
26186;DHT22;20067;48.764;9.176;2023-05-10T14:27:27;20.10;67.10
26186;DHT22;20067;48.764;9.176;2023-05-10T14:29:53;19.90;66.60
26186;DHT22;20067;48.764;9.176;2023-05-10T14:32:19;19.80;67.60
26186;DHT22;20067;48.764;9.176;2023-05-10T14:34:45;19.70;68.40
26186;DHT22;20067;48.764;9.176;2023-05-10T14:37:10;19.60;69.10
26186;DHT22;20067;48.764;9.176;2023-05-10T14:39:37;19.90;68.30
26186;DHT22;20067;48.764;9.176;2023-05-10T14:42:03;19.90;68.20
26186;DHT22;20067;48.764;9.176;2023-05-10T14:44:28;19.90;67.90
26186;DHT22;20067;48.764;9.176;2023-05-10T14:46:54;19.50;67.20
26186;DHT22;20067;48.764;9.176;2023-05-10T14:49:20;19.30;68.40
26186;DHT22;20067;48.764;9.176;2023-05-10T14:51:48;19.30;68.60
26186;DHT22;20067;48.764;9.176;2023-05-10T14:54:13;19.10;68.20
26186;DHT22;20067;48.764;9.176;2023-05-10T14:56:39;18.70;69.90
26186;DHT22;20067;48.764;9.176;2023-05-10T14:59:06;18.80;69.90
26186;DHT22;20067;48.764;9.176;2023-05-10T15:01:32;19.00;69.30
26186;DHT22;20067;48.764;9.176;2023-05-10T15:03:58;19.20;69.00
26186;DHT22;20067;48.764;9.176;2023-05-10T15:06:30;19.30;68.80
26186;DHT22;20067;48.764;9.176;2023-05-10T15:08:56;19.30;67.80
26186;DHT22;20067;48.764;9.176;2023-05-10T15:11:21;19.00;68.10
26186;DHT22;20067;48.764;9.176;2023-05-10T15:13:47;18.60;70.00
26186;DHT22;20067;48.764;9.176;2023-05-10T15:16:12;19.00;69.70
26186;DHT22;20067;48.764;9.176;2023-05-10T15:18:38;19.10;69.50
26186;DHT22;20067;48.764;9.176;2023-05-10T15:21:04;19.20;68.80
26186;DHT22;20067;48.764;9.176;2023-05-10T15:23:29;19.20;70.10
26186;DHT22;20067;48.764;9.176;2023-05-10T15:25:55;19.20;70.70
26186;DHT22;20067;48.764;9.176;2023-05-10T15:28:21;19.10;70.40
26186;DHT22;20067;48.764;9.176;2023-05-10T15:30:47;18.70;70.40
26186;DHT22;20067;48.764;9.176;2023-05-10T15:33:13;18.70;71.30
26186;DHT22;20067;48.764;9.176;2023-05-10T15:35:39;19.00;71.00
26186;DHT22;20067;48.764;9.176;2023-05-10T15:38:05;19.00;70.00
26186;DHT22;20067;48.764;9.176;2023-05-10T15:40:31;18.90;70.80
26186;DHT22;20067;48.764;9.176;2023-05-10T15:42:56;19.20;70.80
26186;DHT22;20067;48.764;9.176;2023-05-10T15:45:22;19.60;69.70
26186;DHT22;20067;48.764;9.176;2023-05-10T15:47:48;19.70;69.40
26186;DHT22;20067;48.764;9.176;2023-05-10T15:50:15;19.50;70.00
26186;DHT22;20067;48.764;9.176;2023-05-10T15:52:41;19.60;70.30
26186;DHT22;20067;48.764;9.176;2023-05-10T15:55:07;19.90;68.50
26186;DHT22;20067;48.764;9.176;2023-05-10T15:57:38;19.60;67.30
26186;DHT22;20067;48.764;9.176;2023-05-10T16:00:05;19.30;68.10
26186;DHT22;20067;48.764;9.176;2023-05-10T16:02:30;18.90;69.10
26186;DHT22;20067;48.764;9.176;2023-05-10T16:04:56;18.90;68.10
26186;DHT22;20067;48.764;9.176;2023-05-10T16:07:22;18.80;68.40
26186;DHT22;20067;48.764;9.176;2023-05-10T16:09:48;18.60;67.90
26186;DHT22;20067;48.764;9.176;2023-05-10T16:12:14;18.40;69.00